createdAt,value
2022-10-06T00:02:41.249Z,20.20
2022-10-06T00:05:26.393Z,11.93
2022-10-06T00:08:11.590Z,23.63
2022-10-06T00:10:57.243Z,24.38
2022-10-06T00:13:42.991Z,28.90
2022-10-06T00:16:28.886Z,16.63
2022-10-06T00:19:13.830Z,20.55
2022-10-06T00:21:59.163Z,15.88
2022-10-06T00:24:44.087Z,19.80
2022-10-06T00:27:40.945Z,16.40
2022-10-06T00:30:27.787Z,21.13
2022-10-06T00:33:15.885Z,20.10
2022-10-06T00:36:01.270Z,24.50
2022-10-06T00:38:46.464Z,14.48
2022-10-06T00:41:31.733Z,13.30
2022-10-06T00:44:16.719Z,18.30
2022-10-06T00:47:02.958Z,18.13
2022-10-06T00:49:48.929Z,12.25
2022-10-06T00:52:34.595Z,21.58
2022-10-06T00:55:20.286Z,11.95
2022-10-06T00:58:06.769Z,12.18
2022-10-06T01:00:55.891Z,18.75
2022-10-06T01:03:50.221Z,20.63
2022-10-06T01:06:45.249Z,23.25
2022-10-06T01:09:31.403Z,19.42
2022-10-06T01:12:17.033Z,22.88
2022-10-06T01:15:02.333Z,15.13
2022-10-06T01:17:57.369Z,17.02
2022-10-06T01:20:50.077Z,19.30
2022-10-06T01:23:36.046Z,20.50
2022-10-06T01:26:24.043Z,11.00
2022-10-06T01:29:09.938Z,16.30
2022-10-06T01:31:55.433Z,13.07
2022-10-06T01:34:40.479Z,17.70
2022-10-06T01:37:25.688Z,12.13
2022-10-06T01:40:10.848Z,13.88
2022-10-06T01:42:56.803Z,13.38
2022-10-06T01:45:42.019Z,20.60
2022-10-06T01:48:28.082Z,19.88
2022-10-06T01:51:18.483Z,15.63
2022-10-06T01:54:03.637Z,15.48
2022-10-06T01:56:48.881Z,8.80
2022-10-06T01:59:34.493Z,15.85
2022-10-06T02:02:19.712Z,13.32
2022-10-06T02:05:05.785Z,20.73
2022-10-06T02:07:50.795Z,16.33
2022-10-06T02:10:36.240Z,18.10
2022-10-06T02:13:24.858Z,10.85
2022-10-06T02:16:11.831Z,16.50
2022-10-06T02:18:57.059Z,19.45
2022-10-06T02:21:42.243Z,12.23
2022-10-06T02:24:28.149Z,11.40
2022-10-06T02:27:13.359Z,17.63
2022-10-06T02:29:58.383Z,16.23
2022-10-06T02:32:44.094Z,15.45
2022-10-06T02:35:29.255Z,20.92
2022-10-06T02:38:14.317Z,12.75
2022-10-06T02:41:01.546Z,14.57
2022-10-06T02:43:46.695Z,14.88
2022-10-06T02:46:32.468Z,14.07
2022-10-06T02:49:17.323Z,21.10
2022-10-06T02:52:02.341Z,19.35
2022-10-06T02:54:47.639Z,14.02
2022-10-06T02:57:32.631Z,14.68
2022-10-06T03:00:18.030Z,16.23
2022-10-06T03:03:03.374Z,14.80
2022-10-06T03:05:48.678Z,16.67
2022-10-06T03:08:33.786Z,11.60
2022-10-06T03:11:21.242Z,16.15
2022-10-06T03:14:07.099Z,11.55
2022-10-06T03:16:52.182Z,21.83
2022-10-06T03:19:38.445Z,20.52
2022-10-06T03:22:23.597Z,19.35
2022-10-06T03:25:09.659Z,18.30
2022-10-06T03:27:54.925Z,21.80
2022-10-06T03:30:39.778Z,25.52
2022-10-06T03:33:25.103Z,18.38
2022-10-06T03:36:12.861Z,15.80
2022-10-06T03:38:58.190Z,21.92
2022-10-06T03:41:43.574Z,14.27
2022-10-06T03:44:28.523Z,14.52
2022-10-06T03:47:17.226Z,19.73
2022-10-06T03:50:03.364Z,21.02
2022-10-06T03:52:51.303Z,12.85
2022-10-06T03:55:36.449Z,19.02
2022-10-06T03:58:21.481Z,13.88
2022-10-06T04:01:14.905Z,14.77
2022-10-06T04:04:00.917Z,9.40
2022-10-06T04:06:46.112Z,13.10
2022-10-06T04:09:31.158Z,19.00
2022-10-06T04:12:16.369Z,18.25
2022-10-06T04:15:02.313Z,13.52
2022-10-06T04:17:47.456Z,20.55
2022-10-06T04:20:32.618Z,17.73
2022-10-06T04:23:19.698Z,19.13
2022-10-06T04:26:16.605Z,14.27
2022-10-06T04:29:01.811Z,19.40
2022-10-06T04:31:47.155Z,12.38
2022-10-06T04:34:32.521Z,17.90
2022-10-06T04:37:17.508Z,15.68
2022-10-06T04:40:02.975Z,17.95
2022-10-06T04:42:49.263Z,15.60
2022-10-06T04:45:34.524Z,12.68
2022-10-06T04:48:19.613Z,7.47
2022-10-06T04:51:07.035Z,20.67
2022-10-06T04:53:52.349Z,16.85
2022-10-06T04:56:37.700Z,15.35
2022-10-06T04:59:42.791Z,18.15
2022-10-06T05:02:31.321Z,13.27
2022-10-06T05:05:16.622Z,17.33
2022-10-06T05:08:02.095Z,13.18
2022-10-06T05:10:47.282Z,11.30
2022-10-06T05:13:32.843Z,13.60
2022-10-06T05:16:18.475Z,18.58
2022-10-06T05:19:03.350Z,11.18
2022-10-06T05:21:48.351Z,14.57
2022-10-06T05:24:33.377Z,11.73
2022-10-06T05:27:18.284Z,15.80
2022-10-06T05:30:03.583Z,16.77
2022-10-06T05:32:50.426Z,17.60
2022-10-06T05:35:35.645Z,13.80
2022-10-06T05:38:21.681Z,13.40
2022-10-06T05:41:15.882Z,12.68
2022-10-06T05:44:00.887Z,17.75
2022-10-06T05:46:46.069Z,7.70
2022-10-06T05:49:31.306Z,9.48
2022-10-06T05:52:16.262Z,13.18
2022-10-06T05:55:01.636Z,8.35
2022-10-06T05:57:46.547Z,8.77
2022-10-06T06:00:31.652Z,9.88
2022-10-06T06:03:16.942Z,18.73
2022-10-06T06:06:01.997Z,20.75
2022-10-06T06:08:51.407Z,11.13
2022-10-06T06:11:47.783Z,12.55
2022-10-06T06:14:51.739Z,12.65
2022-10-06T06:17:36.859Z,13.45
2022-10-06T06:20:21.977Z,10.23
2022-10-06T06:23:06.964Z,9.63
2022-10-06T06:26:02.456Z,16.65
2022-10-06T06:28:48.617Z,18.58
2022-10-06T06:31:36.633Z,15.68
2022-10-06T06:34:22.191Z,12.27
2022-10-06T06:37:14.146Z,11.15
2022-10-06T06:40:00.461Z,18.25
2022-10-06T06:42:46.653Z,13.63
2022-10-06T06:45:34.533Z,13.10
2022-10-06T06:48:19.671Z,12.32
2022-10-06T06:51:05.276Z,17.40
2022-10-06T06:53:51.647Z,12.15
2022-10-06T06:56:38.587Z,8.45
2022-10-06T06:59:25.182Z,8.38
2022-10-06T07:02:11.874Z,9.07
2022-10-06T07:04:56.894Z,12.23
2022-10-06T07:07:42.201Z,8.45
2022-10-06T07:10:27.736Z,14.52
2022-10-06T07:13:17.313Z,11.15
2022-10-06T07:16:21.079Z,13.60
2022-10-06T07:19:25.449Z,16.52
2022-10-06T07:22:29.444Z,13.07
2022-10-06T07:25:26.224Z,19.25
2022-10-06T07:28:12.244Z,21.08
2022-10-06T07:31:00.616Z,11.68
2022-10-06T07:33:45.882Z,13.70
2022-10-06T07:36:32.372Z,12.73
2022-10-06T07:39:17.234Z,16.63
2022-10-06T07:42:02.186Z,14.63
2022-10-06T07:45:07.754Z,20.02
2022-10-06T07:47:58.905Z,21.33
2022-10-06T07:50:45.910Z,16.35
2022-10-06T07:53:31.197Z,16.23
2022-10-06T07:56:17.377Z,16.65
2022-10-06T07:59:02.883Z,17.25
2022-10-06T08:01:50.030Z,12.40
2022-10-06T08:04:35.273Z,18.08
2022-10-06T08:07:20.168Z,19.63
2022-10-06T08:10:05.476Z,14.63
2022-10-06T08:12:50.713Z,16.27
2022-10-06T08:15:36.187Z,19.20
2022-10-06T08:18:44.607Z,14.88
2022-10-06T08:21:30.643Z,13.52
2022-10-06T08:24:17.197Z,18.75
2022-10-06T08:27:02.385Z,28.90
2022-10-06T08:29:47.397Z,34.08
2022-10-06T08:32:33.214Z,48.95
2022-10-06T08:35:18.073Z,50.38
2022-10-06T08:38:03.166Z,54.92
2022-10-06T08:40:48.323Z,55.95
2022-10-06T08:43:34.775Z,40.75
2022-10-06T08:46:24.968Z,43.40
2022-10-06T08:49:18.384Z,38.03
2022-10-06T08:52:20.071Z,42.38
2022-10-06T08:55:32.802Z,35.17
2022-10-06T08:58:50.358Z,29.15
2022-10-06T09:01:45.170Z,23.90
2022-10-06T09:04:33.280Z,21.15
2022-10-06T09:07:52.372Z,23.95
2022-10-06T09:10:56.265Z,20.98
2022-10-06T09:13:53.258Z,15.98
2022-10-06T09:16:43.660Z,21.77
2022-10-06T09:19:33.854Z,18.83
2022-10-06T09:22:22.600Z,11.07
2022-10-06T09:25:17.523Z,14.13
2022-10-06T09:28:03.926Z,12.05
2022-10-06T09:30:53.172Z,19.70
2022-10-06T09:33:40.399Z,16.60
2022-10-06T09:36:26.107Z,17.17
2022-10-06T09:39:24.689Z,15.95
2022-10-06T09:42:09.590Z,20.00
2022-10-06T09:45:25.772Z,19.63
2022-10-06T09:48:13.317Z,17.05
2022-10-06T09:51:07.396Z,19.40
2022-10-06T09:54:15.701Z,18.50
2022-10-06T09:57:10.108Z,21.80
2022-10-06T09:59:58.156Z,29.35
2022-10-06T10:02:44.028Z,17.17
2022-10-06T10:05:33.034Z,16.13
2022-10-06T10:08:25.755Z,21.40
2022-10-06T10:11:41.045Z,19.23
2022-10-06T10:14:26.435Z,18.77
2022-10-06T10:17:19.078Z,21.08
2022-10-06T10:20:22.309Z,18.20
2022-10-06T10:23:30.161Z,19.67
2022-10-06T10:26:55.113Z,22.00
2022-10-06T10:29:46.027Z,14.95
2022-10-06T10:32:51.224Z,22.73
2022-10-06T10:35:45.748Z,17.63
2022-10-06T10:38:32.051Z,21.08
2022-10-06T10:41:26.257Z,16.75
2022-10-06T10:44:23.366Z,17.75
2022-10-06T10:47:14.896Z,17.25
2022-10-06T10:50:23.262Z,23.05
2022-10-06T10:53:20.945Z,25.27
2022-10-06T10:56:09.237Z,17.98
2022-10-06T10:58:59.320Z,16.58
2022-10-06T11:01:49.988Z,8.45
2022-10-06T11:04:40.945Z,14.90
2022-10-06T11:07:48.318Z,20.48
2022-10-06T11:10:50.740Z,16.75
2022-10-06T11:13:48.872Z,16.75
2022-10-06T11:16:37.332Z,15.27
2022-10-06T11:19:28.773Z,15.45
2022-10-06T11:22:41.695Z,19.65
2022-10-06T11:25:46.627Z,15.60
2022-10-06T11:28:52.599Z,18.20
2022-10-06T11:31:54.588Z,20.17
2022-10-06T11:34:41.516Z,13.88
2022-10-06T11:37:34.630Z,16.40
2022-10-06T11:40:29.766Z,13.15
2022-10-06T11:43:23.076Z,14.43
2022-10-06T11:46:20.495Z,13.77
2022-10-06T11:49:30.332Z,15.88
2022-10-06T11:52:15.218Z,15.02
2022-10-06T11:55:14.673Z,14.70
2022-10-06T11:58:37.494Z,13.13
2022-10-06T12:01:35.037Z,16.00
2022-10-06T12:04:24.545Z,18.27
2022-10-06T12:07:10.815Z,14.00
2022-10-06T12:10:27.756Z,14.10
2022-10-06T12:14:04.170Z,16.75
2022-10-06T12:19:58.870Z,12.73
2022-10-06T12:22:50.678Z,14.23
2022-10-06T12:26:01.822Z,11.73
2022-10-06T12:29:25.022Z,29.67
2022-10-06T12:32:21.440Z,16.73
2022-10-06T12:35:20.559Z,28.73
2022-10-06T12:38:26.853Z,32.03
2022-10-06T12:41:12.970Z,26.13
2022-10-06T12:43:58.091Z,19.65
2022-10-06T12:46:46.475Z,20.50
2022-10-06T12:49:42.710Z,23.02
2022-10-06T12:52:46.537Z,13.63
2022-10-06T12:55:49.014Z,17.80
2022-10-06T12:58:34.497Z,16.70
2022-10-06T13:01:22.248Z,13.88
2022-10-06T13:04:34.496Z,16.00
2022-10-06T13:07:24.279Z,11.77
2022-10-06T13:10:15.485Z,12.25
2022-10-06T13:13:01.069Z,9.55
2022-10-06T13:15:46.264Z,13.75
2022-10-06T13:18:32.760Z,12.65
2022-10-06T13:21:18.103Z,12.30
2022-10-06T13:24:03.637Z,15.38
2022-10-06T13:26:49.082Z,15.07
2022-10-06T13:29:34.279Z,15.02
2022-10-06T13:32:19.335Z,14.10
2022-10-06T13:35:04.667Z,13.98
2022-10-06T13:37:51.893Z,12.90
2022-10-06T13:40:44.423Z,15.27
2022-10-06T13:43:34.088Z,10.20
2022-10-06T13:46:25.502Z,16.75
2022-10-06T13:49:13.675Z,12.20
2022-10-06T13:52:10.084Z,10.57
2022-10-06T13:55:00.699Z,24.73
2022-10-06T13:57:48.622Z,14.70
2022-10-06T14:00:46.196Z,15.95
2022-10-06T14:06:27.746Z,11.43
2022-10-06T14:09:15.506Z,12.48
2022-10-06T14:12:03.986Z,12.25
2022-10-06T14:14:53.010Z,15.80
2022-10-06T14:17:38.306Z,14.27
2022-10-06T14:20:36.814Z,10.95
2022-10-06T14:24:00.294Z,14.50
2022-10-06T14:26:49.634Z,8.00
2022-10-06T14:32:21.177Z,13.68
2022-10-06T14:35:10.676Z,16.67
2022-10-06T14:37:55.673Z,16.48
2022-10-06T14:40:41.658Z,14.80
2022-10-06T14:43:26.894Z,15.13
2022-10-06T14:46:12.017Z,11.63
2022-10-06T14:48:57.932Z,17.17
2022-10-06T14:51:45.347Z,14.45
2022-10-06T14:54:30.279Z,11.90
2022-10-06T14:57:15.660Z,12.43
2022-10-06T15:00:01.127Z,14.15
2022-10-06T15:02:46.463Z,13.45
2022-10-06T15:05:31.728Z,15.20
2022-10-06T15:08:18.239Z,13.75
2022-10-06T15:11:03.279Z,11.98
2022-10-06T15:13:48.946Z,25.23
2022-10-06T15:16:37.317Z,18.17
2022-10-06T15:19:22.503Z,11.13
2022-10-06T15:22:09.925Z,13.98
2022-10-06T15:24:54.717Z,14.95
2022-10-06T15:27:58.214Z,18.23
2022-10-06T15:30:43.430Z,14.68
2022-10-06T15:33:30.462Z,15.45
2022-10-06T15:36:18.814Z,12.23
2022-10-06T15:39:11.254Z,14.65
2022-10-06T15:41:57.255Z,18.42
2022-10-06T15:44:42.115Z,13.40
2022-10-06T15:47:27.944Z,19.83
2022-10-06T15:50:17.856Z,20.35
2022-10-06T15:53:03.651Z,17.73
2022-10-06T15:55:49.021Z,10.98
2022-10-06T15:58:34.329Z,19.80
2022-10-06T16:01:34.437Z,19.55
2022-10-06T16:04:28.927Z,17.83
2022-10-06T16:07:16.495Z,19.60
2022-10-06T16:10:01.509Z,14.60
2022-10-06T16:12:46.752Z,17.95
2022-10-06T16:15:31.820Z,17.08
2022-10-06T16:18:17.052Z,18.08
2022-10-06T16:21:02.305Z,11.55
2022-10-06T16:23:47.256Z,11.27
2022-10-06T16:26:33.022Z,18.27
2022-10-06T16:29:20.464Z,16.25
2022-10-06T16:32:05.759Z,16.40
2022-10-06T16:34:51.394Z,11.10
2022-10-06T16:37:36.402Z,10.68
2022-10-06T16:40:23.046Z,9.18
2022-10-06T16:43:08.382Z,16.67
2022-10-06T16:46:02.481Z,15.05
2022-10-06T16:48:50.301Z,10.88
2022-10-06T16:51:41.087Z,12.18
2022-10-06T16:54:26.541Z,10.38
2022-10-06T16:57:11.882Z,7.35
2022-10-06T16:59:56.857Z,10.88
2022-10-06T17:02:42.169Z,8.98
2022-10-06T17:05:29.016Z,9.55
2022-10-06T17:08:13.989Z,18.63
2022-10-06T17:11:25.178Z,11.52
2022-10-06T17:14:10.757Z,10.27
2022-10-06T17:16:56.765Z,11.52
2022-10-06T17:19:42.151Z,13.32
2022-10-06T17:22:27.196Z,17.13
2022-10-06T17:25:14.019Z,16.60
2022-10-06T17:27:59.396Z,15.27
2022-10-06T17:30:51.622Z,16.45
2022-10-06T17:33:39.930Z,14.07
2022-10-06T17:36:25.796Z,25.15
2022-10-06T17:39:12.053Z,20.33
2022-10-06T17:41:57.807Z,16.33
2022-10-06T17:44:42.593Z,21.75
2022-10-06T17:47:27.869Z,18.23
2022-10-06T17:50:12.819Z,17.88
2022-10-06T17:52:59.288Z,17.85
2022-10-06T17:55:46.518Z,14.15
2022-10-06T17:58:31.378Z,16.88
2022-10-06T18:01:19.283Z,17.33
2022-10-06T18:04:06.326Z,20.70
2022-10-06T18:06:52.956Z,18.77
2022-10-06T18:09:38.051Z,21.15
2022-10-06T18:12:23.138Z,21.45
2022-10-06T18:15:09.977Z,18.75
2022-10-06T18:17:55.493Z,18.67
2022-10-06T18:20:41.530Z,20.80
2022-10-06T18:23:26.529Z,17.55
2022-10-06T18:26:14.334Z,21.83
2022-10-06T18:28:59.458Z,18.45
2022-10-06T18:31:45.378Z,24.45
2022-10-06T18:37:35.711Z,18.27
2022-10-06T18:40:21.083Z,27.58
2022-10-06T18:43:06.122Z,14.32
2022-10-06T18:46:09.980Z,15.90
2022-10-06T18:48:55.227Z,18.42
2022-10-06T18:51:43.310Z,21.67
2022-10-06T18:54:31.170Z,16.15
2022-10-06T18:57:16.530Z,22.42
2022-10-06T19:00:01.629Z,16.90
2022-10-06T19:02:49.305Z,22.73
2022-10-06T19:05:35.109Z,17.08
2022-10-06T19:08:20.078Z,21.10
2022-10-06T19:11:25.779Z,18.50
2022-10-06T19:14:13.311Z,22.58
2022-10-06T19:17:04.242Z,25.23
2022-10-06T19:19:51.233Z,28.52
2022-10-06T19:22:36.858Z,18.98
2022-10-06T19:25:21.807Z,24.73
2022-10-06T19:28:07.067Z,23.80
2022-10-06T19:31:04.115Z,24.67
2022-10-06T19:33:50.254Z,12.98
2022-10-06T19:36:35.445Z,22.63
2022-10-06T19:39:30.770Z,22.55
2022-10-06T19:42:37.700Z,19.83
2022-10-06T19:45:22.988Z,16.58
2022-10-06T19:48:10.474Z,23.85
2022-10-06T19:50:55.711Z,23.67
2022-10-06T19:53:41.743Z,24.52
2022-10-06T19:56:29.986Z,25.35
2022-10-06T19:59:17.872Z,22.58
2022-10-06T20:02:03.334Z,21.67
2022-10-06T20:04:48.314Z,24.98
2022-10-06T20:07:33.524Z,25.75
2022-10-06T20:10:18.577Z,20.10
2022-10-06T20:13:03.974Z,18.90
2022-10-06T20:15:49.016Z,16.58
2022-10-06T20:18:36.321Z,23.17
2022-10-06T20:21:24.738Z,18.50
2022-10-06T20:24:18.085Z,23.90
2022-10-06T20:27:03.583Z,23.80
2022-10-06T20:29:48.956Z,18.90
2022-10-06T20:32:34.126Z,25.65
2022-10-06T20:35:19.073Z,19.35
2022-10-06T20:38:05.961Z,17.92
2022-10-06T20:40:50.811Z,26.45
2022-10-06T20:43:35.921Z,27.98
2022-10-06T20:46:21.449Z,18.02
2022-10-06T20:49:17.311Z,21.80
2022-10-06T20:52:04.451Z,25.92
2022-10-06T20:54:49.337Z,28.67
2022-10-06T20:57:34.664Z,26.80
2022-10-06T21:00:19.875Z,28.23
2022-10-06T21:03:04.919Z,33.95
2022-10-06T21:05:50.632Z,20.35
2022-10-06T21:08:35.798Z,25.10
2022-10-06T21:11:22.903Z,15.52
2022-10-06T21:14:11.140Z,20.00
2022-10-06T21:16:56.864Z,14.02
2022-10-06T21:19:42.140Z,20.35
2022-10-06T21:22:31.068Z,21.27
2022-10-06T21:25:16.368Z,19.23
2022-10-06T21:28:02.826Z,24.40
2022-10-06T21:30:48.417Z,17.48
2022-10-06T21:33:37.136Z,14.80
2022-10-06T21:36:24.645Z,15.82
2022-10-06T21:39:11.012Z,14.45
2022-10-06T21:41:56.265Z,16.35
2022-10-06T21:44:41.149Z,14.75
2022-10-06T21:47:26.164Z,22.85
2022-10-06T21:50:11.231Z,22.55
2022-10-06T21:52:56.368Z,20.83
2022-10-06T21:55:41.587Z,23.55
2022-10-06T21:58:26.556Z,19.63
2022-10-06T22:01:11.861Z,19.73
2022-10-06T22:03:59.994Z,17.10
2022-10-06T22:06:45.724Z,21.42
2022-10-06T22:09:30.927Z,19.05
2022-10-06T22:12:16.111Z,17.17
2022-10-06T22:15:00.988Z,20.98
2022-10-06T22:17:46.884Z,19.33
2022-10-06T22:20:34.244Z,20.27
2022-10-06T22:23:19.492Z,25.25
2022-10-06T22:26:04.716Z,17.92
2022-10-06T22:28:52.450Z,17.80
2022-10-06T22:31:39.738Z,12.00
2022-10-06T22:34:25.100Z,21.60
2022-10-06T22:37:10.281Z,14.98
2022-10-06T22:39:55.264Z,24.35
2022-10-06T22:42:40.270Z,18.42
2022-10-06T22:45:25.459Z,19.92
2022-10-06T22:48:10.450Z,16.73
2022-10-06T22:50:55.555Z,15.38
2022-10-06T22:53:40.823Z,18.35
2022-10-06T22:56:31.554Z,23.63
2022-10-06T22:59:16.634Z,10.73
2022-10-06T23:04:57.335Z,17.17
2022-10-06T23:07:42.960Z,19.65
2022-10-06T23:10:30.283Z,16.17
2022-10-06T23:13:15.664Z,13.13
2022-10-06T23:16:07.199Z,14.07
2022-10-06T23:18:52.707Z,17.33
2022-10-06T23:21:39.882Z,17.08
2022-10-06T23:24:25.196Z,14.52
2022-10-06T23:27:10.485Z,12.93
2022-10-06T23:29:55.632Z,12.88
2022-10-06T23:32:40.910Z,11.95
2022-10-06T23:35:25.990Z,12.25
2022-10-06T23:38:10.932Z,16.48
2022-10-06T23:40:56.180Z,13.23
2022-10-06T23:43:41.618Z,9.45
2022-10-06T23:46:26.610Z,9.52
2022-10-06T23:49:12.168Z,9.60
2022-10-06T23:51:57.137Z,18.52
2022-10-06T23:54:42.897Z,10.60
2022-10-06T23:57:27.880Z,11.25
